createdAt,value
2023-02-18T00:02:07.714Z,2.30
2023-02-18T00:04:34.752Z,2.40
2023-02-18T00:07:01.735Z,2.40
2023-02-18T00:09:28.685Z,2.50
2023-02-18T00:11:55.536Z,2.22
2023-02-18T00:14:22.439Z,2.45
2023-02-18T00:16:49.325Z,1.85
2023-02-18T00:19:17.684Z,1.70
2023-02-18T00:21:44.652Z,1.80
2023-02-18T00:24:15.215Z,1.70
2023-02-18T00:26:42.214Z,1.60
2023-02-18T00:29:09.112Z,1.70
2023-02-18T00:31:37.041Z,1.65
2023-02-18T00:34:04.675Z,1.90
2023-02-18T00:36:31.679Z,1.77
2023-02-18T00:39:00.668Z,1.83
2023-02-18T00:41:28.356Z,1.70
2023-02-18T00:43:55.320Z,2.00
2023-02-18T00:46:22.498Z,1.80
2023-02-18T00:48:49.398Z,1.90
2023-02-18T00:51:16.292Z,1.85
2023-02-18T00:53:43.162Z,1.92
2023-02-18T00:56:10.439Z,1.70
2023-02-18T00:58:37.604Z,1.65
2023-02-18T01:01:07.294Z,1.60
2023-02-18T01:06:01.707Z,1.98
2023-02-18T01:08:28.744Z,2.17
2023-02-18T01:10:57.026Z,1.98
2023-02-18T01:13:24.015Z,1.98
2023-02-18T01:15:50.964Z,1.80
2023-02-18T01:18:17.940Z,1.83
2023-02-18T01:20:44.974Z,1.83
2023-02-18T01:23:12.038Z,1.60
2023-02-18T01:25:39.139Z,1.60
2023-02-18T01:28:08.659Z,1.77
2023-02-18T01:30:35.631Z,1.40
2023-02-18T01:33:04.668Z,1.48
2023-02-18T01:35:31.661Z,1.08
2023-02-18T01:37:58.709Z,1.10
2023-02-18T01:40:27.845Z,1.10
2023-02-18T01:42:54.763Z,1.10
2023-02-18T01:45:52.039Z,1.35
2023-02-18T01:48:23.295Z,1.00
2023-02-18T01:50:53.588Z,1.20
2023-02-18T01:53:33.201Z,0.90
2023-02-18T01:56:00.819Z,0.90
2023-02-18T01:58:27.765Z,0.85
2023-02-18T02:00:54.810Z,0.70
2023-02-18T02:03:21.756Z,0.85
2023-02-18T02:05:48.623Z,0.90
2023-02-18T02:08:16.441Z,0.98
2023-02-18T02:11:22.240Z,0.90
2023-02-18T02:13:59.517Z,0.88
2023-02-18T02:16:45.037Z,0.88
2023-02-18T02:19:14.719Z,0.88
2023-02-18T02:22:23.263Z,0.80
2023-02-18T02:25:22.503Z,0.73
2023-02-18T02:28:27.558Z,0.80
2023-02-18T02:31:08.337Z,0.80
2023-02-18T02:33:39.020Z,0.80
2023-02-18T02:36:41.975Z,0.77
2023-02-18T02:39:17.835Z,0.73
2023-02-18T02:41:44.679Z,0.68
2023-02-18T02:44:26.030Z,0.60
2023-02-18T02:46:54.133Z,0.65
2023-02-18T02:49:39.084Z,0.40
2023-02-18T02:52:17.792Z,0.77
2023-02-18T02:54:44.692Z,0.60
2023-02-18T02:57:18.175Z,0.50
2023-02-18T03:00:01.085Z,0.65
2023-02-18T03:02:54.643Z,0.65
2023-02-18T03:05:46.260Z,0.65
2023-02-18T03:08:20.709Z,0.73
2023-02-18T03:11:06.457Z,0.82
2023-02-18T03:13:50.176Z,1.10
2023-02-18T03:16:37.127Z,0.70
2023-02-18T03:19:10.262Z,0.95
2023-02-18T03:22:11.762Z,0.70
2023-02-18T03:24:41.482Z,0.60
2023-02-18T03:27:30.706Z,0.60
2023-02-18T03:30:04.308Z,0.70
2023-02-18T03:32:31.311Z,0.65
2023-02-18T03:35:07.660Z,0.50
2023-02-18T03:37:34.588Z,0.60
2023-02-18T03:40:01.473Z,0.70
2023-02-18T03:42:28.585Z,0.63
2023-02-18T03:44:55.531Z,0.50
2023-02-18T03:47:24.321Z,0.93
2023-02-18T03:49:51.319Z,0.60
2023-02-18T03:52:18.216Z,0.75
2023-02-18T03:54:45.112Z,0.70
2023-02-18T03:57:12.045Z,0.70
2023-02-18T03:59:38.884Z,0.82
2023-02-18T04:02:05.776Z,0.88
2023-02-18T04:04:32.966Z,1.17
2023-02-18T04:06:59.882Z,0.75
2023-02-18T04:09:26.810Z,0.80
2023-02-18T04:11:53.730Z,0.55
2023-02-18T04:14:20.575Z,0.73
2023-02-18T04:16:47.469Z,0.85
2023-02-18T04:19:14.376Z,0.80
2023-02-18T04:21:41.255Z,0.70
2023-02-18T04:24:08.144Z,0.50
2023-02-18T04:26:35.060Z,0.50
2023-02-18T04:29:01.945Z,0.65
2023-02-18T04:31:29.046Z,0.55
2023-02-18T04:33:56.000Z,0.60
2023-02-18T04:36:22.916Z,0.77
2023-02-18T04:38:49.885Z,0.80
2023-02-18T04:41:16.759Z,0.90
2023-02-18T04:43:43.622Z,0.68
2023-02-18T04:46:10.804Z,0.60
2023-02-18T04:48:37.877Z,0.80
2023-02-18T04:51:04.993Z,1.02
2023-02-18T04:53:31.928Z,0.40
2023-02-18T04:55:59.435Z,0.60
2023-02-18T04:58:26.395Z,0.70
2023-02-18T05:00:54.134Z,0.60
2023-02-18T05:03:21.394Z,0.70
2023-02-18T05:05:48.235Z,0.60
2023-02-18T05:08:16.398Z,0.50
2023-02-18T05:10:43.294Z,0.60
2023-02-18T05:13:10.237Z,0.80
2023-02-18T05:15:37.216Z,0.52
2023-02-18T05:18:04.266Z,0.50
2023-02-18T05:20:31.156Z,0.80
2023-02-18T05:22:58.072Z,1.00
2023-02-18T05:25:24.957Z,1.00
2023-02-18T05:27:51.815Z,0.50
2023-02-18T05:30:18.975Z,0.90
2023-02-18T05:32:45.847Z,0.50
2023-02-18T05:35:13.716Z,0.50
2023-02-18T05:37:40.600Z,0.50
2023-02-18T05:40:08.031Z,0.60
2023-02-18T05:42:34.940Z,0.52
2023-02-18T05:45:01.824Z,0.90
2023-02-18T05:47:28.699Z,0.52
2023-02-18T05:49:56.216Z,0.50
2023-02-18T05:52:23.146Z,0.60
2023-02-18T05:54:50.074Z,0.50
2023-02-18T05:57:16.947Z,0.43
2023-02-18T05:59:43.978Z,0.40
2023-02-18T06:02:10.866Z,0.70
2023-02-18T06:04:37.833Z,0.52
2023-02-18T06:07:04.686Z,0.68
2023-02-18T06:09:31.625Z,0.50
2023-02-18T06:11:58.433Z,0.60
2023-02-18T06:14:25.313Z,0.40
2023-02-18T06:16:52.207Z,0.70
2023-02-18T06:19:19.105Z,0.43
2023-02-18T06:21:45.982Z,0.50
2023-02-18T06:24:12.946Z,0.70
2023-02-18T06:26:39.799Z,0.60
2023-02-18T06:29:06.688Z,0.70
2023-02-18T06:31:33.664Z,0.60
2023-02-18T06:34:00.639Z,0.50
2023-02-18T06:36:27.535Z,0.50
2023-02-18T06:38:57.467Z,0.63
2023-02-18T06:43:51.648Z,0.50
2023-02-18T06:46:18.608Z,0.85
2023-02-18T06:48:45.498Z,0.40
2023-02-18T06:51:12.506Z,0.82
2023-02-18T06:53:40.497Z,0.50
2023-02-18T06:56:07.699Z,0.55
2023-02-18T06:58:34.791Z,1.02
2023-02-18T07:01:01.781Z,0.57
2023-02-18T07:03:28.822Z,0.50
2023-02-18T07:05:55.686Z,0.55
2023-02-18T07:08:22.726Z,0.50
2023-02-18T07:10:49.870Z,0.52
2023-02-18T07:13:16.720Z,0.60
2023-02-18T07:15:43.591Z,0.63
2023-02-18T07:18:10.505Z,0.55
2023-02-18T07:20:37.394Z,0.60
2023-02-18T07:23:04.252Z,0.77
2023-02-18T07:25:31.239Z,0.63
2023-02-18T07:27:58.212Z,0.50
2023-02-18T07:30:25.473Z,0.57
2023-02-18T07:32:52.398Z,0.60
2023-02-18T07:35:19.492Z,0.82
2023-02-18T07:37:47.337Z,0.60
2023-02-18T07:40:15.787Z,0.57
2023-02-18T07:42:43.119Z,0.57
2023-02-18T07:45:10.753Z,0.70
2023-02-18T07:47:37.739Z,0.65
2023-02-18T07:50:05.283Z,0.60
2023-02-18T07:52:32.175Z,0.60
2023-02-18T07:54:59.176Z,0.57
2023-02-18T07:57:26.140Z,0.77
2023-02-18T07:59:53.043Z,0.80
2023-02-18T08:02:21.558Z,0.70
2023-02-18T08:04:48.768Z,0.88
2023-02-18T08:07:16.772Z,0.70
2023-02-18T08:09:43.671Z,0.60
2023-02-18T08:12:10.609Z,0.80
2023-02-18T08:14:37.464Z,0.82
2023-02-18T08:17:04.356Z,0.80
2023-02-18T08:19:31.189Z,0.60
2023-02-18T08:22:01.915Z,0.70
2023-02-18T08:24:28.880Z,0.70
2023-02-18T08:27:00.760Z,0.60
2023-02-18T08:29:28.498Z,0.60
2023-02-18T08:31:57.344Z,0.93
2023-02-18T08:34:24.317Z,0.80
2023-02-18T08:36:51.258Z,0.60
2023-02-18T08:39:18.262Z,0.60
2023-02-18T08:41:45.116Z,0.55
2023-02-18T08:44:12.179Z,0.68
2023-02-18T08:46:39.058Z,0.80
2023-02-18T08:49:06.759Z,0.80
2023-02-18T08:51:33.921Z,0.70
2023-02-18T08:54:00.971Z,0.60
2023-02-18T08:56:27.970Z,0.60
2023-02-18T08:58:54.836Z,0.68
2023-02-18T09:01:22.167Z,0.60
2023-02-18T09:03:49.247Z,0.63
2023-02-18T09:06:16.260Z,0.60
2023-02-18T09:08:43.435Z,0.57
2023-02-18T09:11:11.359Z,0.70
2023-02-18T09:13:38.480Z,0.68
2023-02-18T09:16:18.269Z,0.70
2023-02-18T09:18:45.730Z,0.80
2023-02-18T09:21:13.288Z,0.70
2023-02-18T09:23:40.413Z,0.73
2023-02-18T09:26:08.631Z,0.70
2023-02-18T09:28:36.253Z,0.60
2023-02-18T09:31:11.654Z,0.60
2023-02-18T09:33:39.929Z,0.55
2023-02-18T09:36:07.418Z,0.60
2023-02-18T09:38:34.441Z,0.70
2023-02-18T09:41:03.520Z,0.82
2023-02-18T09:43:35.444Z,0.80
2023-02-18T09:46:02.980Z,0.60
2023-02-18T09:48:34.826Z,0.60
2023-02-18T09:51:01.784Z,0.73
2023-02-18T09:53:28.695Z,0.80
2023-02-18T09:55:56.835Z,0.82
2023-02-18T09:58:28.214Z,0.70
2023-02-18T10:00:58.549Z,0.77
2023-02-18T10:03:25.729Z,0.70
2023-02-18T10:05:52.612Z,0.52
2023-02-18T10:08:22.064Z,0.60
2023-02-18T10:10:49.046Z,0.82
2023-02-18T10:13:34.311Z,1.02
2023-02-18T10:16:02.375Z,0.50
2023-02-18T10:18:42.746Z,0.80
2023-02-18T10:21:11.792Z,0.60
2023-02-18T10:23:42.098Z,0.60
2023-02-18T10:26:13.195Z,0.40
2023-02-18T10:28:40.125Z,0.60
2023-02-18T10:31:11.215Z,0.80
2023-02-18T10:33:53.863Z,0.82
2023-02-18T10:36:24.427Z,0.50
2023-02-18T10:38:51.306Z,0.70
2023-02-18T10:41:29.090Z,0.60
2023-02-18T10:44:13.498Z,0.50
2023-02-18T10:46:50.401Z,0.63
2023-02-18T10:49:26.061Z,0.80
2023-02-18T10:51:54.958Z,0.77
2023-02-18T10:54:26.120Z,0.70
2023-02-18T10:56:53.700Z,0.52
2023-02-18T10:59:32.263Z,0.80
2023-02-18T11:02:02.264Z,0.70
2023-02-18T11:04:35.834Z,0.50
2023-02-18T11:07:08.256Z,0.50
2023-02-18T11:09:47.917Z,0.50
2023-02-18T11:12:25.989Z,0.75
2023-02-18T11:15:23.687Z,0.50
2023-02-18T11:17:52.656Z,0.80
2023-02-18T11:20:31.397Z,0.77
2023-02-18T11:23:08.103Z,0.60
2023-02-18T11:25:36.688Z,0.60
2023-02-18T11:28:25.739Z,0.60
2023-02-18T11:30:58.064Z,0.60
2023-02-18T11:33:31.898Z,0.50
2023-02-18T11:35:58.981Z,0.70
2023-02-18T11:38:28.881Z,0.63
2023-02-18T11:41:02.625Z,0.60
2023-02-18T11:43:30.984Z,0.65
2023-02-18T11:46:16.125Z,0.70
2023-02-18T11:48:43.252Z,0.68
2023-02-18T11:51:24.240Z,0.63
2023-02-18T11:54:05.160Z,0.60
2023-02-18T11:56:34.449Z,0.50
2023-02-18T11:59:01.924Z,0.60
2023-02-18T12:01:45.545Z,0.55
2023-02-18T12:04:14.179Z,0.60
2023-02-18T12:06:50.281Z,0.60
2023-02-18T12:09:31.835Z,0.60
2023-02-18T12:12:22.619Z,0.90
2023-02-18T12:14:49.556Z,0.60
2023-02-18T12:17:19.603Z,0.60
2023-02-18T12:20:24.410Z,0.63
2023-02-18T12:23:12.660Z,0.60
2023-02-18T12:26:10.489Z,0.60
2023-02-18T12:29:04.167Z,0.70
2023-02-18T12:31:36.814Z,0.60
2023-02-18T12:34:16.007Z,0.50
2023-02-18T12:37:08.320Z,0.50
2023-02-18T12:40:14.067Z,0.60
2023-02-18T12:42:48.307Z,0.50
2023-02-18T12:45:27.357Z,0.60
2023-02-18T12:48:05.949Z,0.63
2023-02-18T12:50:32.799Z,0.80
2023-02-18T12:53:27.526Z,0.68
2023-02-18T12:56:03.567Z,0.70
2023-02-18T12:59:01.851Z,0.50
2023-02-18T13:01:43.834Z,0.50
2023-02-18T13:04:22.036Z,0.70
2023-02-18T13:06:56.093Z,0.60
2023-02-18T13:09:47.795Z,0.80
2023-02-18T13:12:38.032Z,0.55
2023-02-18T13:15:31.369Z,0.73
2023-02-18T13:17:59.201Z,0.70
2023-02-18T13:20:35.201Z,0.82
2023-02-18T13:23:02.901Z,0.80
2023-02-18T13:25:29.906Z,0.70
2023-02-18T13:28:18.349Z,0.80
2023-02-18T13:30:49.684Z,0.93
2023-02-18T13:33:22.511Z,1.00
2023-02-18T13:35:55.285Z,1.10
2023-02-18T13:38:49.192Z,0.85
2023-02-18T13:41:16.080Z,0.80
2023-02-18T13:43:46.134Z,0.90
2023-02-18T13:46:15.317Z,0.95
2023-02-18T13:49:00.273Z,0.80
2023-02-18T13:51:29.375Z,0.80
2023-02-18T13:54:03.039Z,0.80
2023-02-18T13:56:31.405Z,0.90
2023-02-18T13:59:07.325Z,0.70
2023-02-18T14:01:50.999Z,1.05
2023-02-18T14:04:39.844Z,0.73
2023-02-18T14:07:25.282Z,1.10
2023-02-18T14:09:53.422Z,0.82
2023-02-18T14:12:28.552Z,0.90
2023-02-18T14:14:55.670Z,1.00
2023-02-18T14:17:22.606Z,1.20
2023-02-18T14:20:01.810Z,1.00
2023-02-18T14:22:31.497Z,0.88
2023-02-18T14:25:08.186Z,1.00
2023-02-18T14:27:35.613Z,0.80
2023-02-18T14:30:07.595Z,0.80
2023-02-18T14:32:34.725Z,0.70
2023-02-18T14:35:04.682Z,0.70
2023-02-18T14:37:36.637Z,1.10
2023-02-18T14:40:40.312Z,0.60
2023-02-18T14:43:23.084Z,0.95
2023-02-18T14:46:08.428Z,0.77
2023-02-18T14:48:57.752Z,0.60
2023-02-18T14:51:25.734Z,1.02
2023-02-18T14:53:52.654Z,0.70
2023-02-18T14:56:21.013Z,0.85
2023-02-18T14:58:49.720Z,0.90
2023-02-18T15:01:28.124Z,0.88
2023-02-18T15:03:55.546Z,1.08
2023-02-18T15:06:32.815Z,0.82
2023-02-18T15:09:00.435Z,0.80
2023-02-18T15:11:38.472Z,1.40
2023-02-18T15:14:11.030Z,1.20
2023-02-18T15:16:37.976Z,1.02
2023-02-18T15:19:13.543Z,0.80
2023-02-18T15:21:43.305Z,0.85
2023-02-18T15:24:12.131Z,0.65
2023-02-18T15:26:42.682Z,0.95
2023-02-18T15:29:29.589Z,0.70
2023-02-18T15:31:58.002Z,0.80
2023-02-18T15:34:36.904Z,1.00
2023-02-18T15:37:05.762Z,0.57
2023-02-18T15:39:32.983Z,0.73
2023-02-18T15:42:03.167Z,0.80
2023-02-18T15:44:31.281Z,0.60
2023-02-18T15:47:07.282Z,0.73
2023-02-18T15:49:34.454Z,0.73
2023-02-18T15:52:01.518Z,0.70
2023-02-18T15:54:28.564Z,0.70
2023-02-18T15:56:56.326Z,0.70
2023-02-18T15:59:36.299Z,0.73
2023-02-18T16:02:14.916Z,0.73
2023-02-18T16:04:42.238Z,0.80
2023-02-18T16:07:51.769Z,0.70
2023-02-18T16:10:33.259Z,0.70
2023-02-18T16:13:03.012Z,0.80
2023-02-18T16:15:31.426Z,0.75
2023-02-18T16:18:00.352Z,0.70
2023-02-18T16:20:32.857Z,0.80
2023-02-18T16:23:11.196Z,0.82
2023-02-18T16:25:45.240Z,0.60
2023-02-18T16:28:28.031Z,0.80
2023-02-18T16:30:55.018Z,1.10
2023-02-18T16:33:21.845Z,0.80
2023-02-18T16:35:50.597Z,0.77
2023-02-18T16:38:19.481Z,0.98
2023-02-18T16:40:46.404Z,1.60
2023-02-18T16:43:15.733Z,0.90
2023-02-18T16:45:53.123Z,0.70
2023-02-18T16:48:22.604Z,0.90
2023-02-18T16:50:50.452Z,0.80
2023-02-18T16:53:17.414Z,0.70
2023-02-18T16:55:44.761Z,0.70
2023-02-18T16:58:11.697Z,0.60
2023-02-18T17:00:38.721Z,0.60
2023-02-18T17:03:05.841Z,0.60
2023-02-18T17:05:36.714Z,0.70
2023-02-18T17:08:23.122Z,0.65
2023-02-18T17:10:51.624Z,0.50
2023-02-18T17:13:19.977Z,1.15
2023-02-18T17:15:47.996Z,0.60
2023-02-18T17:18:15.002Z,0.80
2023-02-18T17:20:42.012Z,0.70
2023-02-18T17:23:14.598Z,1.00
2023-02-18T17:25:41.636Z,0.90
2023-02-18T17:28:08.517Z,0.95
2023-02-18T17:30:37.548Z,0.88
2023-02-18T17:33:04.829Z,1.30
2023-02-18T17:35:31.789Z,1.30
2023-02-18T17:37:58.848Z,1.25
2023-02-18T17:40:27.184Z,0.80
2023-02-18T17:42:55.217Z,0.80
2023-02-18T17:45:44.056Z,1.17
2023-02-18T17:48:11.023Z,1.20
2023-02-18T17:50:37.964Z,0.82
2023-02-18T17:53:04.980Z,1.00
2023-02-18T17:55:33.366Z,0.70
2023-02-18T17:58:00.274Z,0.95
2023-02-18T18:00:35.273Z,0.85
2023-02-18T18:03:02.483Z,0.82
2023-02-18T18:05:34.259Z,0.80
2023-02-18T18:08:01.585Z,1.40
2023-02-18T18:10:32.078Z,0.88
2023-02-18T18:12:59.958Z,0.80
2023-02-18T18:15:30.747Z,0.70
2023-02-18T18:17:58.138Z,0.80
2023-02-18T18:20:25.892Z,0.80
2023-02-18T18:22:53.670Z,1.25
2023-02-18T18:25:26.347Z,1.30
2023-02-18T18:27:53.867Z,1.00
2023-02-18T18:30:22.425Z,0.95
2023-02-18T18:32:49.420Z,1.02
2023-02-18T18:35:27.694Z,0.90
2023-02-18T18:37:54.893Z,0.95
2023-02-18T18:40:22.947Z,0.90
2023-02-18T18:42:50.083Z,1.13
2023-02-18T18:45:21.408Z,1.17
2023-02-18T18:47:48.627Z,0.80
2023-02-18T18:50:15.636Z,0.80
2023-02-18T18:52:43.691Z,1.30
2023-02-18T18:55:20.933Z,1.00
2023-02-18T18:57:47.923Z,1.00
2023-02-18T19:00:15.399Z,0.90
2023-02-18T19:02:42.387Z,1.05
2023-02-18T19:05:41.676Z,1.05
2023-02-18T19:08:09.158Z,0.90
2023-02-18T19:10:37.695Z,1.10
2023-02-18T19:13:23.890Z,1.00
2023-02-18T19:15:51.630Z,1.42
2023-02-18T19:18:20.094Z,0.90
2023-02-18T19:20:47.580Z,1.13
2023-02-18T19:23:14.566Z,1.20
2023-02-18T19:25:41.595Z,1.00
2023-02-18T19:28:09.123Z,1.02
2023-02-18T19:30:36.912Z,1.02
2023-02-18T19:33:05.465Z,1.10
2023-02-18T19:35:32.578Z,1.45
2023-02-18T19:37:59.621Z,1.10
2023-02-18T19:40:28.759Z,1.05
2023-02-18T19:42:55.993Z,1.35
2023-02-18T19:45:23.069Z,1.00
2023-02-18T19:47:54.631Z,1.20
2023-02-18T19:50:21.597Z,1.02
2023-02-18T19:52:48.653Z,0.82
2023-02-18T19:55:15.519Z,1.30
2023-02-18T19:57:42.353Z,1.30
2023-02-18T20:00:09.803Z,1.25
2023-02-18T20:02:42.469Z,1.20
2023-02-18T20:05:10.037Z,1.40
2023-02-18T20:07:37.000Z,1.20
2023-02-18T20:10:05.274Z,1.60
2023-02-18T20:12:32.354Z,1.48
2023-02-18T20:14:59.249Z,1.13
2023-02-18T20:17:26.107Z,1.60
2023-02-18T20:19:53.009Z,1.50
2023-02-18T20:22:19.860Z,1.65
2023-02-18T20:24:48.034Z,1.52
2023-02-18T20:27:14.988Z,1.30
2023-02-18T20:29:41.950Z,1.70
2023-02-18T20:32:09.059Z,1.40
2023-02-18T20:34:36.088Z,1.75
2023-02-18T20:37:02.950Z,1.88
2023-02-18T20:39:29.847Z,1.27
2023-02-18T20:41:59.194Z,1.40
2023-02-18T20:44:28.490Z,1.48
2023-02-18T20:46:55.442Z,1.75
2023-02-18T20:49:22.623Z,1.52
2023-02-18T20:51:49.516Z,2.10
2023-02-18T20:54:19.594Z,1.42
2023-02-18T20:56:47.998Z,2.03
2023-02-18T20:59:15.831Z,1.90
2023-02-18T21:01:43.804Z,1.92
2023-02-18T21:04:12.117Z,1.90
2023-02-18T21:06:39.126Z,1.88
2023-02-18T21:09:06.020Z,1.52
2023-02-18T21:11:33.014Z,2.00
2023-02-18T21:14:00.142Z,1.70
2023-02-18T21:16:27.576Z,1.80
2023-02-18T21:18:54.636Z,2.05
2023-02-18T21:21:23.576Z,1.77
2023-02-18T21:23:50.664Z,2.03
2023-02-18T21:26:24.992Z,1.80
2023-02-18T21:28:53.814Z,2.00
2023-02-18T21:31:25.897Z,1.80
2023-02-18T21:33:52.944Z,2.20
2023-02-18T21:36:19.963Z,2.05
2023-02-18T21:38:51.949Z,2.13
2023-02-18T21:41:18.862Z,2.13
2023-02-18T21:43:46.168Z,1.83
2023-02-18T21:46:25.672Z,1.95
2023-02-18T21:49:12.413Z,2.00
2023-02-18T21:51:56.450Z,2.38
2023-02-18T21:54:48.988Z,1.73
2023-02-18T21:57:17.908Z,1.85
2023-02-18T21:59:47.611Z,1.98
2023-02-18T22:02:22.062Z,2.10
2023-02-18T22:04:49.505Z,1.70
2023-02-18T22:07:17.018Z,2.10
2023-02-18T22:09:44.940Z,2.13
2023-02-18T22:12:13.106Z,2.03
2023-02-18T22:14:40.054Z,1.85
2023-02-18T22:17:06.969Z,1.98
2023-02-18T22:19:33.888Z,2.10
2023-02-18T22:22:02.641Z,1.90
2023-02-18T22:24:29.972Z,2.38
2023-02-18T22:26:57.289Z,2.00
2023-02-18T22:29:24.318Z,1.90
2023-02-18T22:31:53.508Z,2.83
2023-02-18T22:34:20.816Z,1.98
2023-02-18T22:36:47.818Z,2.47
2023-02-18T22:39:15.318Z,1.77
2023-02-18T22:41:42.461Z,2.67
2023-02-18T22:44:14.073Z,1.92
2023-02-18T22:46:41.238Z,1.98
2023-02-18T22:49:08.367Z,2.42
2023-02-18T22:51:37.916Z,1.80
2023-02-18T22:54:10.316Z,2.65
2023-02-18T22:56:37.245Z,2.00
2023-02-18T22:59:04.129Z,1.70
2023-02-18T23:01:38.715Z,2.40
2023-02-18T23:04:13.246Z,1.98
2023-02-18T23:06:41.986Z,2.25
2023-02-18T23:09:09.339Z,1.80
2023-02-18T23:11:36.245Z,2.60
2023-02-18T23:14:18.190Z,2.92
2023-02-18T23:17:07.778Z,2.25
2023-02-18T23:19:35.109Z,2.08
2023-02-18T23:22:01.957Z,2.55
2023-02-18T23:24:28.801Z,2.25
2023-02-18T23:26:55.655Z,1.80
2023-02-18T23:29:22.648Z,1.90
2023-02-18T23:31:49.679Z,1.83
2023-02-18T23:34:16.824Z,2.30
2023-02-18T23:36:43.821Z,2.05
2023-02-18T23:39:12.017Z,2.20
2023-02-18T23:41:38.951Z,3.30
2023-02-18T23:44:06.702Z,2.22
2023-02-18T23:46:33.748Z,2.10
2023-02-18T23:49:00.821Z,2.80
2023-02-18T23:51:27.703Z,1.90
2023-02-18T23:53:54.601Z,2.40
2023-02-18T23:56:25.736Z,2.63
2023-02-18T23:58:54.985Z,2.15
